createdAt,value
2022-09-09T00:00:55.509Z,22.10
2022-09-09T00:03:53.910Z,22.10
2022-09-09T00:06:36.889Z,22.10
2022-09-09T00:09:20.336Z,22.10
2022-09-09T00:12:09.599Z,22.10
2022-09-09T00:14:56.163Z,22.00
2022-09-09T00:18:02.189Z,22.00
2022-09-09T00:21:19.941Z,22.10
2022-09-09T00:23:55.454Z,22.00
2022-09-09T00:26:35.032Z,22.00
2022-09-09T00:29:08.480Z,22.00
2022-09-09T00:31:36.022Z,21.90
2022-09-09T00:34:18.278Z,21.90
2022-09-09T00:36:46.410Z,21.90
2022-09-09T00:39:39.304Z,21.90
2022-09-09T00:42:25.231Z,21.80
2022-09-09T00:45:29.063Z,21.80
2022-09-09T00:47:57.905Z,21.80
2022-09-09T00:50:31.034Z,21.80
2022-09-09T00:53:03.212Z,21.80
2022-09-09T00:55:56.085Z,21.80
2022-09-09T00:58:23.094Z,21.70
2022-09-09T01:01:02.353Z,21.70
2022-09-09T01:03:41.881Z,21.70
2022-09-09T01:06:30.289Z,21.70
2022-09-09T01:09:18.977Z,21.70
2022-09-09T01:12:18.928Z,21.70
2022-09-09T01:14:55.151Z,21.60
2022-09-09T01:17:31.351Z,21.60
2022-09-09T01:20:07.373Z,21.60
2022-09-09T01:23:02.366Z,21.50
2022-09-09T01:26:05.514Z,21.40
2022-09-09T01:28:36.631Z,21.40
2022-09-09T01:31:12.987Z,21.30
2022-09-09T01:33:44.603Z,21.30
2022-09-09T01:36:35.659Z,21.30
2022-09-09T01:39:02.929Z,21.30
2022-09-09T01:41:29.981Z,21.30
2022-09-09T01:44:04.076Z,21.30
2022-09-09T01:46:33.576Z,21.20
2022-09-09T01:49:02.850Z,21.20
2022-09-09T01:51:30.289Z,21.20
2022-09-09T01:54:01.421Z,21.20
2022-09-09T01:56:34.196Z,21.20
2022-09-09T01:59:07.316Z,21.10
2022-09-09T02:01:40.548Z,21.20
2022-09-09T02:04:38.705Z,21.10
2022-09-09T02:07:49.686Z,21.10
2022-09-09T02:10:47.165Z,21.10
2022-09-09T02:13:23.920Z,21.00
2022-09-09T02:16:04.076Z,21.00
2022-09-09T02:18:49.952Z,21.00
2022-09-09T02:21:19.939Z,21.00
2022-09-09T02:23:50.464Z,21.00
2022-09-09T02:26:21.310Z,21.00
2022-09-09T02:28:54.278Z,21.00
2022-09-09T02:31:25.501Z,20.90
2022-09-09T02:34:01.632Z,20.90
2022-09-09T02:36:34.455Z,20.90
2022-09-09T02:39:02.384Z,20.90
2022-09-09T02:41:38.701Z,20.90
2022-09-09T02:44:18.463Z,20.90
2022-09-09T02:47:09.703Z,20.90
2022-09-09T02:49:50.566Z,20.90
2022-09-09T02:52:31.400Z,20.90
2022-09-09T02:55:05.718Z,21.00
2022-09-09T02:57:34.311Z,21.00
2022-09-09T03:00:02.688Z,21.00
2022-09-09T03:02:32.325Z,21.00
2022-09-09T03:05:04.738Z,21.00
2022-09-09T03:07:31.778Z,20.90
2022-09-09T03:09:59.325Z,20.90
2022-09-09T03:12:28.162Z,20.90
2022-09-09T03:14:55.356Z,20.80
2022-09-09T03:17:22.342Z,20.80
2022-09-09T03:19:55.494Z,20.80
2022-09-09T03:22:23.108Z,20.80
2022-09-09T03:24:50.315Z,20.80
2022-09-09T03:27:18.433Z,20.80
2022-09-09T03:29:46.158Z,20.80
2022-09-09T03:32:18.951Z,20.80
2022-09-09T03:34:48.607Z,20.80
2022-09-09T03:37:16.671Z,20.80
2022-09-09T03:39:43.731Z,20.80
2022-09-09T03:42:15.849Z,20.70
2022-09-09T03:44:43.009Z,20.70
2022-09-09T03:47:10.444Z,20.70
2022-09-09T03:49:38.133Z,20.70
2022-09-09T03:52:05.602Z,20.70
2022-09-09T03:54:32.782Z,20.70
2022-09-09T03:56:59.724Z,20.70
2022-09-09T03:59:27.416Z,20.60
2022-09-09T04:01:55.876Z,20.60
2022-09-09T04:04:23.326Z,20.60
2022-09-09T04:06:51.948Z,20.60
2022-09-09T04:09:19.029Z,20.60
2022-09-09T04:11:47.125Z,20.50
2022-09-09T04:14:15.288Z,20.50
2022-09-09T04:16:44.228Z,20.50
2022-09-09T04:19:14.675Z,20.50
2022-09-09T04:21:43.481Z,20.40
2022-09-09T04:24:10.707Z,20.40
2022-09-09T04:26:38.342Z,20.30
2022-09-09T04:29:06.056Z,20.30
2022-09-09T04:31:33.530Z,20.30
2022-09-09T04:34:06.226Z,20.30
2022-09-09T04:36:34.157Z,20.30
2022-09-09T04:39:04.397Z,20.40
2022-09-09T04:41:32.444Z,20.50
2022-09-09T04:44:01.766Z,20.50
2022-09-09T04:46:29.143Z,20.60
2022-09-09T04:48:57.830Z,20.70
2022-09-09T04:51:29.268Z,20.70
2022-09-09T04:53:56.312Z,20.80
2022-09-09T04:56:23.726Z,20.90
2022-09-09T04:58:53.548Z,20.90
2022-09-09T05:01:25.377Z,21.00
2022-09-09T05:03:54.511Z,21.00
2022-09-09T05:06:23.741Z,21.00
2022-09-09T05:08:56.718Z,21.10
2022-09-09T05:11:31.988Z,21.10
2022-09-09T05:14:08.140Z,21.20
2022-09-09T05:16:36.254Z,21.20
2022-09-09T05:19:04.351Z,21.30
2022-09-09T05:21:42.674Z,21.40
2022-09-09T05:24:09.919Z,21.40
2022-09-09T05:26:37.072Z,21.50
2022-09-09T05:29:04.054Z,21.50
2022-09-09T05:31:32.249Z,21.50
2022-09-09T05:34:03.332Z,21.60
2022-09-09T05:36:30.361Z,21.60
2022-09-09T05:38:57.901Z,21.60
2022-09-09T05:41:27.443Z,21.60
2022-09-09T05:43:57.007Z,21.70
2022-09-09T05:46:26.244Z,21.70
2022-09-09T05:48:55.304Z,21.80
2022-09-09T05:51:33.127Z,21.80
2022-09-09T05:54:05.266Z,21.90
2022-09-09T05:56:35.479Z,21.90
2022-09-09T05:59:02.890Z,21.90
2022-09-09T06:01:32.797Z,22.00
2022-09-09T06:04:01.466Z,22.00
2022-09-09T06:06:33.101Z,22.00
2022-09-09T06:09:00.811Z,22.10
2022-09-09T06:11:35.478Z,22.10
2022-09-09T06:14:02.604Z,22.20
2022-09-09T06:16:33.634Z,22.20
2022-09-09T06:19:02.156Z,22.30
2022-09-09T06:21:38.275Z,22.30
2022-09-09T06:24:11.277Z,22.40
2022-09-09T06:26:43.596Z,22.40
2022-09-09T06:29:13.847Z,22.40
2022-09-09T06:31:43.015Z,22.50
2022-09-09T06:34:21.199Z,22.50
2022-09-09T06:36:52.186Z,22.60
2022-09-09T06:39:19.186Z,22.60
2022-09-09T06:41:47.014Z,22.60
2022-09-09T06:44:40.058Z,22.70
2022-09-09T06:47:12.024Z,22.70
2022-09-09T06:49:40.736Z,22.70
2022-09-09T06:52:10.558Z,22.70
2022-09-09T06:54:38.495Z,22.70
2022-09-09T06:57:27.125Z,22.70
2022-09-09T06:59:56.813Z,22.70
2022-09-09T07:02:24.813Z,22.70
2022-09-09T07:04:52.649Z,22.70
2022-09-09T07:07:20.919Z,22.70
2022-09-09T07:09:48.114Z,22.70
2022-09-09T07:12:15.676Z,22.70
2022-09-09T07:14:50.512Z,22.70
2022-09-09T07:17:17.511Z,22.80
2022-09-09T07:19:44.797Z,22.90
2022-09-09T07:22:11.751Z,22.90
2022-09-09T07:24:39.618Z,23.00
2022-09-09T07:27:07.122Z,23.10
2022-09-09T07:29:35.759Z,23.10
2022-09-09T07:32:04.811Z,23.10
2022-09-09T07:34:36.076Z,23.10
2022-09-09T07:37:03.357Z,23.10
2022-09-09T07:39:31.701Z,23.10
2022-09-09T07:41:59.776Z,23.10
2022-09-09T07:44:28.024Z,23.20
2022-09-09T07:47:05.224Z,23.30
2022-09-09T07:49:37.420Z,23.40
2022-09-09T07:54:34.521Z,23.70
2022-09-09T07:57:05.275Z,23.80
2022-09-09T07:59:34.656Z,23.80
2022-09-09T08:02:02.576Z,23.80
2022-09-09T08:04:32.299Z,23.90
2022-09-09T08:07:02.022Z,24.00
2022-09-09T08:09:33.323Z,24.00
2022-09-09T08:12:17.406Z,24.10
2022-09-09T08:14:44.903Z,24.20
2022-09-09T08:17:12.022Z,24.40
2022-09-09T08:19:39.429Z,24.60
2022-09-09T08:22:11.804Z,24.80
2022-09-09T08:24:40.709Z,25.00
2022-09-09T08:27:08.626Z,25.30
2022-09-09T08:29:35.636Z,25.60
2022-09-09T08:32:03.375Z,25.80
2022-09-09T08:34:32.295Z,25.90
2022-09-09T08:37:02.847Z,26.20
2022-09-09T08:39:35.617Z,26.40
2022-09-09T08:42:35.176Z,26.50
2022-09-09T08:45:30.498Z,26.60
2022-09-09T08:48:27.595Z,26.70
2022-09-09T08:51:01.509Z,26.80
2022-09-09T08:53:47.658Z,27.00
2022-09-09T08:56:20.013Z,27.30
2022-09-09T08:58:52.270Z,27.50
2022-09-09T09:01:51.469Z,27.70
2022-09-09T09:04:43.190Z,28.00
2022-09-09T09:07:13.341Z,28.10
2022-09-09T09:10:40.035Z,28.10
2022-09-09T09:13:16.927Z,28.20
2022-09-09T09:15:48.051Z,28.30
2022-09-09T09:18:17.001Z,28.40
2022-09-09T09:21:06.276Z,28.50
2022-09-09T09:24:10.309Z,28.70
2022-09-09T09:26:38.401Z,28.80
2022-09-09T09:29:19.986Z,29.00
2022-09-09T09:31:53.464Z,29.10
2022-09-09T09:34:20.454Z,29.30
2022-09-09T09:36:54.353Z,29.50
2022-09-09T09:42:28.377Z,29.70
2022-09-09T09:45:08.023Z,29.80
2022-09-09T09:47:35.192Z,30.00
2022-09-09T09:50:21.492Z,30.10
2022-09-09T09:53:00.147Z,30.20
2022-09-09T09:55:32.181Z,30.30
2022-09-09T09:58:06.965Z,30.40
2022-09-09T10:00:38.101Z,30.50
2022-09-09T10:03:29.611Z,30.60
2022-09-09T10:05:57.948Z,30.70
2022-09-09T10:08:28.750Z,30.80
2022-09-09T10:11:07.988Z,30.70
2022-09-09T10:13:58.804Z,30.80
2022-09-09T10:16:47.513Z,30.80
2022-09-09T10:19:20.205Z,30.80
2022-09-09T10:22:18.268Z,30.90
2022-09-09T10:25:13.001Z,30.90
2022-09-09T10:28:03.972Z,31.10
2022-09-09T10:30:44.621Z,31.20
2022-09-09T10:33:20.113Z,31.10
2022-09-09T10:35:58.101Z,31.20
2022-09-09T10:38:35.304Z,31.10
2022-09-09T10:41:11.252Z,31.00
2022-09-09T10:44:01.714Z,31.00
2022-09-09T10:46:40.651Z,31.10
2022-09-09T10:49:26.134Z,31.20
2022-09-09T10:52:12.014Z,31.30
2022-09-09T10:54:54.753Z,31.40
2022-09-09T10:57:38.490Z,31.30
2022-09-09T11:00:15.776Z,31.20
2022-09-09T11:02:43.162Z,31.20
2022-09-09T11:05:41.155Z,31.30
2022-09-09T11:08:20.815Z,31.40
2022-09-09T11:11:01.505Z,31.40
2022-09-09T11:13:44.339Z,31.30
2022-09-09T11:16:31.786Z,31.40
2022-09-09T11:19:04.819Z,31.40
2022-09-09T11:21:48.392Z,31.60
2022-09-09T11:24:20.180Z,31.70
2022-09-09T11:26:59.163Z,31.60
2022-09-09T11:29:26.440Z,31.60
2022-09-09T11:32:22.728Z,31.60
2022-09-09T11:35:22.024Z,31.60
2022-09-09T11:38:01.093Z,31.50
2022-09-09T11:40:29.544Z,31.50
2022-09-09T11:43:05.949Z,31.40
2022-09-09T11:45:36.725Z,31.40
2022-09-09T11:48:07.006Z,31.40
2022-09-09T11:50:38.630Z,31.40
2022-09-09T11:53:24.649Z,31.40
2022-09-09T11:56:16.917Z,31.50
2022-09-09T11:59:00.554Z,31.50
2022-09-09T12:01:35.021Z,31.60
2022-09-09T12:04:29.882Z,31.60
2022-09-09T12:07:04.901Z,31.60
2022-09-09T12:09:34.601Z,31.60
2022-09-09T12:12:13.619Z,31.60
2022-09-09T12:14:44.304Z,31.50
2022-09-09T12:17:17.095Z,31.60
2022-09-09T12:19:44.078Z,31.70
2022-09-09T12:22:50.716Z,31.80
2022-09-09T12:25:37.609Z,31.80
2022-09-09T12:28:18.864Z,31.50
2022-09-09T12:31:11.093Z,31.30
2022-09-09T12:33:44.153Z,31.00
2022-09-09T12:36:33.801Z,30.80
2022-09-09T12:39:18.037Z,30.70
2022-09-09T12:41:57.701Z,30.60
2022-09-09T12:44:30.926Z,30.50
2022-09-09T12:47:01.667Z,30.40
2022-09-09T12:49:36.578Z,30.30
2022-09-09T12:52:07.076Z,30.20
2022-09-09T12:54:37.317Z,30.20
2022-09-09T12:57:06.082Z,30.20
2022-09-09T12:59:38.911Z,30.20
2022-09-09T13:02:18.702Z,30.20
2022-09-09T13:04:47.951Z,30.20
2022-09-09T13:07:17.410Z,30.30
2022-09-09T13:09:45.914Z,30.20
2022-09-09T13:12:20.551Z,30.20
2022-09-09T13:14:54.085Z,30.20
2022-09-09T13:17:30.047Z,30.20
2022-09-09T13:19:58.036Z,30.20
2022-09-09T13:22:35.365Z,30.10
2022-09-09T13:25:12.441Z,30.20
2022-09-09T13:27:53.912Z,30.20
2022-09-09T13:30:23.994Z,30.20
2022-09-09T13:33:15.659Z,30.30
2022-09-09T13:35:56.208Z,30.20
2022-09-09T13:38:27.730Z,30.20
2022-09-09T13:41:04.290Z,30.20
2022-09-09T13:43:36.730Z,30.20
2022-09-09T13:46:07.289Z,30.20
2022-09-09T13:48:34.292Z,30.20
2022-09-09T13:51:06.254Z,30.20
2022-09-09T13:53:33.518Z,30.10
2022-09-09T13:56:00.924Z,30.10
2022-09-09T13:58:27.990Z,30.10
2022-09-09T14:00:55.563Z,30.10
2022-09-09T14:03:22.680Z,30.00
2022-09-09T14:05:49.929Z,30.00
2022-09-09T14:08:23.604Z,29.90
2022-09-09T14:10:50.632Z,30.00
2022-09-09T14:13:17.542Z,30.00
2022-09-09T14:15:44.682Z,30.00
2022-09-09T14:18:14.912Z,29.90
2022-09-09T14:20:41.859Z,29.90
2022-09-09T14:23:12.617Z,29.80
2022-09-09T14:25:42.357Z,29.80
2022-09-09T14:28:11.570Z,29.80
2022-09-09T14:30:40.771Z,29.70
2022-09-09T14:33:09.624Z,29.70
2022-09-09T14:35:37.253Z,29.70
2022-09-09T14:38:05.727Z,29.60
2022-09-09T14:40:32.869Z,29.60
2022-09-09T14:43:00.242Z,29.50
2022-09-09T14:45:27.266Z,29.40
2022-09-09T14:47:54.289Z,29.40
2022-09-09T14:50:22.471Z,29.30
2022-09-09T14:52:49.485Z,29.30
2022-09-09T14:55:16.645Z,29.30
2022-09-09T14:57:44.037Z,29.20
2022-09-09T15:00:13.366Z,29.30
2022-09-09T15:02:40.860Z,29.30
2022-09-09T15:05:08.357Z,29.30
2022-09-09T15:07:35.351Z,29.30
2022-09-09T15:10:02.346Z,29.30
2022-09-09T15:12:29.457Z,29.20
2022-09-09T15:14:56.845Z,29.10
2022-09-09T15:17:25.559Z,29.20
2022-09-09T15:19:53.192Z,29.10
2022-09-09T15:22:20.130Z,29.10
2022-09-09T15:24:47.084Z,29.10
2022-09-09T15:27:15.623Z,29.10
2022-09-09T15:29:43.143Z,29.10
2022-09-09T15:32:10.061Z,29.00
2022-09-09T15:34:37.011Z,29.00
2022-09-09T15:37:04.014Z,28.90
2022-09-09T15:39:31.612Z,28.80
2022-09-09T15:42:01.504Z,28.70
2022-09-09T15:44:28.422Z,28.60
2022-09-09T15:46:55.417Z,28.60
2022-09-09T15:49:27.177Z,28.60
2022-09-09T15:51:59.292Z,28.60
2022-09-09T15:54:27.481Z,28.60
2022-09-09T15:56:57.075Z,28.60
2022-09-09T15:59:25.430Z,28.50
2022-09-09T16:01:52.990Z,28.50
2022-09-09T16:04:26.786Z,28.50
2022-09-09T16:06:59.473Z,28.50
2022-09-09T16:09:27.813Z,28.40
2022-09-09T16:11:57.764Z,28.40
2022-09-09T16:14:26.419Z,28.40
2022-09-09T16:16:53.504Z,28.40
2022-09-09T16:19:20.686Z,28.40
2022-09-09T16:21:49.689Z,28.30
2022-09-09T16:24:21.443Z,28.20
2022-09-09T16:26:51.262Z,28.20
2022-09-09T16:29:19.671Z,28.10
2022-09-09T16:31:47.999Z,28.00
2022-09-09T16:34:16.539Z,28.00
2022-09-09T16:36:44.736Z,27.90
2022-09-09T16:39:17.134Z,27.80
2022-09-09T16:41:45.736Z,27.80
2022-09-09T16:44:15.010Z,27.80
2022-09-09T16:46:43.686Z,27.70
2022-09-09T16:49:13.278Z,27.60
2022-09-09T16:51:50.763Z,27.60
2022-09-09T16:54:18.926Z,27.60
2022-09-09T16:56:48.050Z,27.50
2022-09-09T16:59:17.724Z,27.50
2022-09-09T17:01:46.583Z,27.50
2022-09-09T17:04:25.102Z,27.50
2022-09-09T17:06:54.312Z,27.50
2022-09-09T17:09:23.474Z,27.40
2022-09-09T17:11:54.131Z,27.50
2022-09-09T17:14:24.804Z,27.50
2022-09-09T17:16:51.869Z,27.50
2022-09-09T17:19:19.340Z,27.50
2022-09-09T17:22:15.430Z,27.60
2022-09-09T17:24:35.469Z,27.60
2022-09-09T17:27:03.240Z,27.60
2022-09-09T17:29:30.369Z,27.60
2022-09-09T17:31:57.520Z,27.50
2022-09-09T17:34:25.166Z,27.40
2022-09-09T17:36:53.149Z,27.30
2022-09-09T17:39:20.320Z,27.30
2022-09-09T17:41:47.577Z,27.10
2022-09-09T17:44:14.534Z,27.00
2022-09-09T17:46:43.256Z,26.90
2022-09-09T17:49:15.444Z,26.80
2022-09-09T17:51:43.912Z,26.80
2022-09-09T17:54:20.945Z,26.70
2022-09-09T17:56:48.984Z,26.50
2022-09-09T17:59:17.711Z,26.40
2022-09-09T18:01:47.273Z,26.20
2022-09-09T18:04:16.381Z,26.10
2022-09-09T18:06:46.013Z,26.00
2022-09-09T18:09:19.701Z,25.90
2022-09-09T18:11:51.208Z,25.80
2022-09-09T18:14:21.418Z,25.70
2022-09-09T18:16:49.919Z,25.60
2022-09-09T18:19:21.207Z,25.50
2022-09-09T18:21:49.318Z,25.40
2022-09-09T18:24:17.767Z,25.40
2022-09-09T18:26:45.625Z,25.30
2022-09-09T18:29:15.853Z,25.20
2022-09-09T18:31:43.256Z,25.20
2022-09-09T18:34:13.018Z,25.20
2022-09-09T18:36:46.956Z,25.10
2022-09-09T18:39:16.283Z,25.00
2022-09-09T18:41:52.546Z,25.00
2022-09-09T18:44:22.748Z,24.90
2022-09-09T18:46:50.628Z,24.90
2022-09-09T18:49:17.971Z,24.80
2022-09-09T18:51:46.581Z,24.80
2022-09-09T18:54:16.818Z,24.70
2022-09-09T18:56:44.458Z,24.70
2022-09-09T18:59:15.092Z,24.60
2022-09-09T19:01:42.946Z,24.60
2022-09-09T19:04:10.110Z,24.50
2022-09-09T19:06:40.767Z,24.50
2022-09-09T19:09:11.318Z,24.50
2022-09-09T19:11:38.857Z,24.50
2022-09-09T19:14:10.719Z,24.40
2022-09-09T19:16:39.243Z,24.50
2022-09-09T19:19:15.683Z,24.40
2022-09-09T19:21:43.737Z,24.40
2022-09-09T19:24:20.314Z,24.40
2022-09-09T19:26:51.154Z,24.30
2022-09-09T19:29:23.203Z,24.30
2022-09-09T19:32:18.962Z,24.30
2022-09-09T19:34:38.503Z,24.20
2022-09-09T19:37:05.755Z,24.10
2022-09-09T19:39:34.627Z,24.10
2022-09-09T19:42:02.063Z,24.10
2022-09-09T19:44:29.393Z,24.00
2022-09-09T19:46:56.343Z,23.90
2022-09-09T19:49:23.444Z,23.90
2022-09-09T19:51:50.455Z,23.90
2022-09-09T19:54:17.411Z,23.80
2022-09-09T19:56:44.677Z,23.80
2022-09-09T19:59:13.416Z,23.70
2022-09-09T20:01:44.629Z,23.70
2022-09-09T20:04:12.880Z,23.70
2022-09-09T20:06:42.220Z,23.60
2022-09-09T20:09:14.916Z,23.60
2022-09-09T20:11:43.246Z,23.50
2022-09-09T20:14:11.674Z,23.50
2022-09-09T20:16:39.602Z,23.40
2022-09-09T20:19:08.171Z,23.30
2022-09-09T20:21:38.383Z,23.30
2022-09-09T20:24:10.982Z,23.30
2022-09-09T20:26:38.019Z,23.20
2022-09-09T20:29:15.750Z,23.20
2022-09-09T20:31:45.023Z,23.20
2022-09-09T20:34:16.016Z,23.10
2022-09-09T20:36:43.339Z,23.10
2022-09-09T20:39:15.052Z,23.10
2022-09-09T20:41:44.419Z,23.10
2022-09-09T20:44:17.324Z,23.10
2022-09-09T20:46:49.883Z,23.10
2022-09-09T20:49:19.829Z,23.00
2022-09-09T20:51:49.929Z,23.00
2022-09-09T20:54:23.535Z,23.00
2022-09-09T20:56:52.356Z,22.90
2022-09-09T20:59:22.244Z,22.90
2022-09-09T21:01:50.100Z,22.90
2022-09-09T21:04:19.717Z,22.80
2022-09-09T21:06:49.179Z,22.80
2022-09-09T21:09:17.842Z,22.80
2022-09-09T21:11:44.906Z,22.80
2022-09-09T21:14:12.595Z,22.80
2022-09-09T21:16:39.601Z,22.80
2022-09-09T21:19:06.835Z,22.80
2022-09-09T21:21:33.962Z,22.80
2022-09-09T21:24:01.011Z,22.70
2022-09-09T21:26:28.665Z,22.70
2022-09-09T21:28:56.343Z,22.70
2022-09-09T21:31:27.917Z,22.60
2022-09-09T21:33:57.221Z,22.60
2022-09-09T21:36:25.465Z,22.60
2022-09-09T21:38:52.411Z,22.60
2022-09-09T21:41:19.519Z,22.50
2022-09-09T21:43:51.331Z,22.50
2022-09-09T21:46:18.505Z,22.50
2022-09-09T21:48:45.551Z,22.50
2022-09-09T21:51:14.996Z,22.40
2022-09-09T21:53:41.981Z,22.40
2022-09-09T21:56:17.403Z,22.40
2022-09-09T21:58:45.079Z,22.50
2022-09-09T22:01:15.859Z,22.50
2022-09-09T22:03:43.797Z,22.50
2022-09-09T22:06:14.272Z,22.50
2022-09-09T22:08:41.244Z,22.50
2022-09-09T22:11:14.001Z,22.50
2022-09-09T22:13:42.574Z,22.50
2022-09-09T22:16:12.402Z,22.50
2022-09-09T22:18:40.493Z,22.50
2022-09-09T22:21:16.573Z,22.40
2022-09-09T22:23:43.866Z,22.40
2022-09-09T22:26:11.063Z,22.40
2022-09-09T22:28:38.824Z,22.40
2022-09-09T22:31:06.125Z,22.40
2022-09-09T22:33:33.708Z,22.50
2022-09-09T22:36:00.694Z,22.50
2022-09-09T22:38:27.651Z,22.40
2022-09-09T22:40:54.869Z,22.40
2022-09-09T22:43:22.902Z,22.40
2022-09-09T22:45:50.927Z,22.40
2022-09-09T22:48:18.431Z,22.40
2022-09-09T22:50:45.739Z,22.40
2022-09-09T22:53:18.702Z,22.40
2022-09-09T22:55:59.413Z,22.40
2022-09-09T22:58:29.164Z,22.40
2022-09-09T23:00:59.930Z,22.40
2022-09-09T23:03:28.877Z,22.40
2022-09-09T23:06:00.689Z,22.40
2022-09-09T23:08:33.865Z,22.40
2022-09-09T23:11:03.960Z,22.30
2022-09-09T23:13:33.183Z,22.30
2022-09-09T23:16:03.926Z,22.30
2022-09-09T23:18:31.142Z,22.30
2022-09-09T23:21:01.356Z,22.30
2022-09-09T23:23:28.834Z,22.30
2022-09-09T23:25:55.761Z,22.30
2022-09-09T23:28:22.716Z,22.30
2022-09-09T23:30:50.803Z,22.30
2022-09-09T23:33:17.846Z,22.30
2022-09-09T23:35:44.861Z,22.20
2022-09-09T23:38:11.732Z,22.30
2022-09-09T23:40:39.944Z,22.30
2022-09-09T23:43:07.182Z,22.30
2022-09-09T23:45:34.228Z,22.20
2022-09-09T23:48:01.143Z,22.20
2022-09-09T23:50:28.191Z,22.20
2022-09-09T23:52:55.083Z,22.20
2022-09-09T23:55:23.879Z,22.20
2022-09-09T23:57:51.148Z,22.20
